Time;durP1;ratioP1;P1;durP2;ratioP2;P2;SDS_P1;SDS_P2;PMS_P1;PMS_P2;Temp;Humidity;BMP_temperature;BMP_pressure;BME280_temperature;BME280_humidity;BME280_pressure;Samples;Min_cycle;Max_cycle;Signal;HPM_P1;HPM_P2
2023/01/10 00:01:56;;;;;;;31.60;4.78;;;3.80;99.90;;;;;;4974851;28;20065;-68
2023/01/10 00:04:22;;;;;;;30.05;6.32;;;3.90;99.90;;;;;;4974423;28;20110;-68
2023/01/10 00:06:47;;;;;;;46.10;6.57;;;4.10;99.90;;;;;;4974867;28;20419;-69
2023/01/10 00:09:13;;;;;;;36.17;4.18;;;4.10;99.90;;;;;;4974517;28;20101;-68
2023/01/10 00:14:27;;;;;;;54.05;5.63;;;4.20;99.90;;;;;;4974725;28;20077;-68
2023/01/10 00:16:52;;;;;;;32.13;5.32;;;4.20;99.90;;;;;;4974456;28;20461;-68
2023/01/10 00:19:18;;;;;;;47.30;5.45;;;4.30;99.90;;;;;;4973931;28;20094;-69
2023/01/10 00:21:43;;;;;;;35.50;4.72;;;4.40;99.90;;;;;;4974210;28;20025;-68
2023/01/10 00:24:17;;;;;;;34.22;3.88;;;4.50;99.90;;;;;;4974301;28;20058;-68
2023/01/10 00:26:46;;;;;;;38.13;4.88;;;4.60;99.90;;;;;;4974636;28;20023;-69
2023/01/10 00:29:12;;;;;;;42.53;4.60;;;4.60;99.90;;;;;;4974487;28;20026;-68
2023/01/10 00:31:38;;;;;;;24.17;3.42;;;4.70;99.90;;;;;;4975417;28;20037;-69
2023/01/10 00:34:04;;;;;;;18.98;2.85;;;4.70;99.90;;;;;;4977990;28;20553;-68
2023/01/10 00:36:29;;;;;;;21.50;3.38;;;4.70;99.90;;;;;;4978017;28;20023;-69
2023/01/10 00:38:55;;;;;;;19.67;3.00;;;4.70;99.90;;;;;;4978279;28;20033;-68
2023/01/10 00:44:05;;;;;;;;;;;4.70;99.90;;;;;;4978493;28;20038;-69
2023/01/10 00:46:31;;;;;;;40.17;3.67;;;4.70;99.90;;;;;;4977535;28;19912;-68
2023/01/10 00:48:56;;;;;;;14.98;2.15;;;4.80;99.90;;;;;;4977875;28;20023;-68
2023/01/10 00:51:22;;;;;;;23.83;3.47;;;4.80;99.90;;;;;;4977392;28;20110;-68
2023/01/10 00:53:47;;;;;;;24.27;2.67;;;4.90;99.90;;;;;;4978075;28;20027;-69
2023/01/10 00:56:13;;;;;;;26.85;3.25;;;5.00;99.90;;;;;;4977358;28;20027;-69
2023/01/10 00:58:38;;;;;;;16.65;2.53;;;5.10;99.90;;;;;;4977116;28;20074;-69
2023/01/10 01:01:04;;;;;;;22.45;3.35;;;5.10;99.90;;;;;;4977417;28;20027;-68
2023/01/10 01:03:30;;;;;;;16.95;2.10;;;5.30;99.90;;;;;;4977393;28;20391;-68
2023/01/10 01:05:55;;;;;;;13.45;3.22;;;5.40;99.90;;;;;;4977231;28;20102;-68
2023/01/10 01:08:21;;;;;;;23.58;2.58;;;5.40;99.90;;;;;;4977689;28;20023;-68
2023/01/10 01:10:47;;;;;;;32.72;3.17;;;5.50;99.90;;;;;;4977553;28;20027;-68
2023/01/10 01:13:19;;;;;;;26.48;3.42;;;5.50;99.90;;;;;;4977603;28;20089;-68
2023/01/10 01:15:45;;;;;;;17.15;2.65;;;5.60;99.90;;;;;;4977681;28;20046;-68
2023/01/10 01:18:13;;;;;;;21.88;2.80;;;5.60;99.90;;;;;;4976783;28;20039;-69
2023/01/10 01:20:40;;;;;;;18.20;2.60;;;5.70;99.90;;;;;;4977603;28;20439;-68
2023/01/10 01:23:06;;;;;;;25.15;3.33;;;5.70;99.90;;;;;;4975797;28;20402;-69
2023/01/10 01:25:32;;;;;;;17.45;2.65;;;5.70;99.90;;;;;;4976842;28;20475;-68
2023/01/10 01:27:58;;;;;;;26.38;3.40;;;5.70;99.90;;;;;;4984210;23;20105;-69
2023/01/10 01:30:23;;;;;;;16.08;3.08;;;5.70;99.90;;;;;;4976950;28;20442;-69
2023/01/10 01:32:49;;;;;;;24.27;2.47;;;5.70;99.90;;;;;;4976923;28;20549;-68
2023/01/10 01:35:15;;;;;;;26.27;4.20;;;5.80;99.90;;;;;;4976932;28;20046;-69
2023/01/10 01:37:42;;;;;;;19.65;3.92;;;5.90;99.90;;;;;;4976671;28;20046;-69
2023/01/10 01:40:13;;;;;;;18.90;2.42;;;6.00;99.90;;;;;;4976857;28;20395;-68
2023/01/10 01:42:38;;;;;;;19.70;2.40;;;6.00;99.90;;;;;;4976761;28;20038;-68
2023/01/10 01:45:07;;;;;;;19.60;3.47;;;6.00;99.90;;;;;;4976609;28;20023;-68
2023/01/10 01:47:41;;;;;;;19.42;2.13;;;6.00;99.90;;;;;;4976629;28;20022;-68
2023/01/10 01:50:24;;;;;;;20.30;2.95;;;6.00;99.90;;;;;;4976390;28;20391;-68
2023/01/10 01:52:53;;;;;;;22.00;2.17;;;5.90;99.90;;;;;;4976881;28;20061;-68
2023/01/10 01:55:19;;;;;;;18.38;3.15;;;5.80;99.90;;;;;;4976397;28;20031;-68
2023/01/10 01:57:46;;;;;;;22.25;2.92;;;5.80;99.90;;;;;;4976527;28;20531;-68
2023/01/10 02:00:13;;;;;;;24.77;2.33;;;5.80;99.90;;;;;;4976220;28;20018;-69
2023/01/10 02:02:45;;;;;;;19.80;2.17;;;5.80;99.90;;;;;;4976309;28;20023;-68
2023/01/10 02:05:14;;;;;;;25.55;2.72;;;5.80;99.90;;;;;;4976187;28;20018;-68
2023/01/10 02:07:44;;;;;;;22.15;2.85;;;5.80;99.90;;;;;;4976244;28;20023;-69
2023/01/10 02:10:51;;;;;;;29.48;3.10;;;5.70;99.90;;;;;;4976420;28;20054;-68
2023/01/10 02:13:20;;;;;;;15.55;2.50;;;5.70;99.90;;;;;;4976193;28;20023;-68
2023/01/10 02:15:46;;;;;;;32.90;3.10;;;5.60;99.90;;;;;;4974771;28;20371;-68
2023/01/10 02:18:12;;;;;;;17.77;2.40;;;5.50;99.90;;;;;;4975708;28;20062;-69
2023/01/10 02:20:48;;;;;;;17.25;2.25;;;5.50;99.90;;;;;;4975911;28;20046;-68
2023/01/10 02:23:47;;;;;;;20.58;2.20;;;5.50;99.90;;;;;;4976255;28;20102;-68
2023/01/10 02:26:44;;;;;;;17.92;2.10;;;5.50;99.90;;;;;;4975416;28;20034;-68
2023/01/10 02:29:27;;;;;;;22.58;2.58;;;5.40;99.90;;;;;;4975701;28;20034;-69
2023/01/10 02:32:09;;;;;;;29.58;2.60;;;5.30;99.90;;;;;;4975858;28;20053;-68
2023/01/10 02:34:50;;;;;;;23.25;2.17;;;5.10;99.90;;;;;;4975775;28;20505;-68
2023/01/10 02:37:39;;;;;;;21.27;2.28;;;5.00;99.90;;;;;;4975545;28;20078;-69
2023/01/10 02:40:17;;;;;;;23.35;2.40;;;4.70;99.90;;;;;;4964816;28;20066;-68
2023/01/10 02:43:00;;;;;;;29.10;3.42;;;4.50;99.90;;;;;;4975867;28;20022;-68
2023/01/10 02:45:35;;;;;;;20.17;2.35;;;4.30;99.90;;;;;;4974279;28;20030;-68
2023/01/10 02:48:01;;;;;;;17.92;1.95;;;4.20;99.90;;;;;;4975734;28;20030;-68
2023/01/10 02:50:42;;;;;;;18.10;2.13;;;4.00;99.90;;;;;;4975624;28;20027;-69
2023/01/10 02:53:21;;;;;;;10.85;1.40;;;3.90;99.90;;;;;;4975746;28;20078;-68
2023/01/10 02:56:11;;;;;;;19.60;2.53;;;3.80;99.90;;;;;;4975098;28;20114;-68
2023/01/10 02:59:14;;;;;;;21.80;2.42;;;3.70;99.90;;;;;;4975527;28;20031;-68
2023/01/10 03:01:51;;;;;;;18.70;2.30;;;3.60;99.90;;;;;;4975565;28;20094;-68
2023/01/10 03:04:33;;;;;;;22.42;2.58;;;3.60;99.90;;;;;;4975088;28;20026;-68
2023/01/10 03:07:38;;;;;;;23.92;2.28;;;3.50;99.90;;;;;;4975033;28;20045;-68
2023/01/10 03:10:32;;;;;;;36.83;3.08;;;3.60;99.90;;;;;;4965264;28;20391;-68
2023/01/10 03:13:11;;;;;;;42.65;3.90;;;3.60;99.90;;;;;;4975542;28;20022;-68
2023/01/10 03:15:40;;;;;;;32.65;3.75;;;3.60;99.90;;;;;;4975308;28;20027;-68
2023/01/10 03:18:11;;;;;;;35.33;2.92;;;3.60;99.90;;;;;;4974802;28;20046;-68
2023/01/10 03:20:41;;;;;;;30.38;3.50;;;3.60;99.90;;;;;;4975399;28;20034;-68
2023/01/10 03:23:08;;;;;;;51.67;3.90;;;3.50;99.90;;;;;;4974785;28;20042;-68
2023/01/10 03:25:36;;;;;;;28.98;3.15;;;3.70;99.90;;;;;;4974869;28;20074;-68
2023/01/10 03:28:04;;;;;;;28.35;4.45;;;3.70;99.90;;;;;;4974495;28;20058;-69
2023/01/10 03:30:56;;;;;;;34.53;3.88;;;3.80;99.90;;;;;;4974560;28;20054;-68
2023/01/10 03:33:26;;;;;;;42.22;4.00;;;3.70;99.90;;;;;;4974759;28;20030;-68
2023/01/10 03:36:07;;;;;;;24.65;3.05;;;3.70;99.90;;;;;;4974288;28;20023;-69
2023/01/10 03:38:51;;;;;;;33.88;3.25;;;3.60;99.90;;;;;;4974731;28;20031;-68
2023/01/10 03:41:24;;;;;;;38.47;4.78;;;3.70;99.90;;;;;;4973333;28;20070;-68
2023/01/10 03:46:42;;;;;;;24.85;2.45;;;3.50;99.90;;;;;;4974552;28;20789;-69
2023/01/10 03:49:09;;;;;;;36.75;4.30;;;3.50;99.90;;;;;;4974682;28;20372;-68
2023/01/10 03:51:36;;;;;;;39.97;4.60;;;3.50;99.90;;;;;;4975121;28;20486;-68
2023/01/10 03:54:02;;;;;;;43.45;4.47;;;3.60;99.90;;;;;;4974961;28;20497;-68
2023/01/10 03:56:28;;;;;;;36.38;4.68;;;3.60;99.90;;;;;;4974605;28;20069;-69
2023/01/10 03:58:53;;;;;;;45.50;6.03;;;3.60;99.90;;;;;;4974380;28;20113;-68
2023/01/10 04:01:19;;;;;;;42.90;3.28;;;3.70;99.90;;;;;;4974428;28;20031;-69
2023/01/10 04:03:44;;;;;;;54.20;4.63;;;3.70;99.90;;;;;;4974533;28;20059;-68
2023/01/10 04:06:10;;;;;;;32.45;4.05;;;3.60;99.90;;;;;;4974959;28;20038;-68
2023/01/10 04:08:36;;;;;;;31.15;3.85;;;3.60;99.90;;;;;;4978335;28;20027;-69
2023/01/10 04:11:01;;;;;;;39.53;3.90;;;3.50;99.90;;;;;;4978594;28;20033;-68
2023/01/10 04:13:27;;;;;;;48.38;4.35;;;3.40;99.90;;;;;;4978303;28;20398;-68
2023/01/10 04:15:52;;;;;;;29.70;2.85;;;3.40;99.90;;;;;;4978169;28;20414;-68
2023/01/10 04:18:18;;;;;;;31.75;4.15;;;3.30;99.90;;;;;;4978117;28;20460;-69
2023/01/10 04:20:44;;;;;;;46.38;4.15;;;3.20;99.90;;;;;;4978338;28;20542;-68
2023/01/10 04:23:09;;;;;;;54.30;3.83;;;3.10;99.90;;;;;;4978006;28;20023;-68
2023/01/10 04:25:35;;;;;;;34.92;3.67;;;3.00;99.90;;;;;;4978320;28;20027;-68
2023/01/10 04:28:00;;;;;;;40.53;4.20;;;3.00;99.90;;;;;;4977767;28;20039;-68
2023/01/10 04:30:26;;;;;;;48.80;4.43;;;3.10;99.90;;;;;;4977887;28;20030;-68
2023/01/10 04:32:52;;;;;;;45.00;5.05;;;3.20;99.90;;;;;;4977948;28;20034;-68
2023/01/10 04:35:17;;;;;;;46.80;5.03;;;3.20;99.90;;;;;;4978134;28;20486;-68
2023/01/10 04:37:43;;;;;;;34.05;4.18;;;3.30;99.90;;;;;;4977737;28;20113;-68
2023/01/10 04:40:09;;;;;;;36.83;4.57;;;3.30;99.90;;;;;;4977377;28;20101;-69
2023/01/10 04:42:35;;;;;;;54.25;4.10;;;3.40;99.90;;;;;;4978056;28;20022;-68
2023/01/10 04:45:01;;;;;;;24.25;3.85;;;3.40;99.90;;;;;;4978320;28;20037;-68
2023/01/10 04:47:27;;;;;;;47.95;4.15;;;3.50;99.90;;;;;;4977524;28;20383;-68
2023/01/10 04:49:52;;;;;;;45.97;5.78;;;3.50;99.90;;;;;;4977487;28;20031;-68
2023/01/10 04:52:18;;;;;;;45.55;4.75;;;3.60;99.90;;;;;;4977483;28;20401;-68
2023/01/10 04:54:43;;;;;;;33.45;4.25;;;3.70;99.90;;;;;;4976272;28;20029;-68
2023/01/10 04:57:09;;;;;;;41.53;4.43;;;3.80;99.90;;;;;;4977258;28;20030;-68
2023/01/10 04:59:34;;;;;;;42.35;4.03;;;3.90;99.90;;;;;;4977700;28;20428;-68
2023/01/10 05:02:00;;;;;;;47.72;4.18;;;4.20;99.90;;;;;;4977643;28;20407;-68
2023/01/10 05:04:25;;;;;;;38.95;4.50;;;4.30;99.90;;;;;;4977258;28;20091;-68
2023/01/10 05:06:51;;;;;;;56.17;6.55;;;4.40;99.90;;;;;;4976944;28;20082;-69
2023/01/10 05:09:16;;;;;;;32.35;4.63;;;4.40;99.90;;;;;;4977270;28;20027;-68
2023/01/10 05:11:42;;;;;;;48.72;5.32;;;4.50;99.90;;;;;;4977600;28;20027;-68
2023/01/10 05:14:07;;;;;;;54.75;4.88;;;4.60;99.90;;;;;;4977699;28;20031;-68
2023/01/10 05:16:34;;;;;;;32.67;4.72;;;4.70;99.90;;;;;;4977303;28;20031;-69
2023/01/10 05:18:59;;;;;;;50.15;4.22;;;4.70;99.90;;;;;;4977015;28;20038;-68
2023/01/10 05:21:25;;;;;;;43.20;4.85;;;4.80;99.90;;;;;;4976981;28;20034;-68
2023/01/10 05:23:50;;;;;;;37.28;5.38;;;4.80;99.90;;;;;;4975695;28;20022;-68
2023/01/10 05:26:18;;;;;;;40.22;4.60;;;4.90;99.90;;;;;;4976733;28;20033;-69
2023/01/10 05:28:44;;;;;;;44.08;5.15;;;4.90;99.90;;;;;;4976923;28;20046;-68
2023/01/10 05:31:17;;;;;;;37.70;4.50;;;5.00;99.90;;;;;;4977217;28;20475;-70
2023/01/10 05:33:47;;;;;;;34.50;4.67;;;5.20;99.90;;;;;;4976836;28;20029;-68
2023/01/10 05:36:13;;;;;;;35.00;2.97;;;5.20;99.90;;;;;;4976731;28;20035;-68
2023/01/10 05:38:38;;;;;;;36.08;4.50;;;5.20;99.90;;;;;;4977057;28;20532;-69
2023/01/10 05:41:04;;;;;;;41.40;4.72;;;5.20;99.90;;;;;;4976584;28;20554;-69
2023/01/10 05:43:30;;;;;;;36.70;4.38;;;5.10;99.90;;;;;;4976677;28;20419;-68
2023/01/10 05:45:55;;;;;;;42.95;3.72;;;5.00;99.90;;;;;;4976644;28;20506;-68
2023/01/10 05:48:21;;;;;;;28.23;3.88;;;4.90;99.90;;;;;;4976593;28;20446;-68
2023/01/10 05:50:49;;;;;;;24.90;4.53;;;4.80;99.90;;;;;;4976477;28;20023;-69
2023/01/10 05:53:15;;;;;;;41.00;4.30;;;4.70;99.90;;;;;;4976492;28;20156;-68
2023/01/10 05:55:41;;;;;;;29.40;3.45;;;4.60;99.90;;;;;;4976361;28;20548;-68
2023/01/10 05:58:07;;;;;;;37.83;3.15;;;4.50;99.90;;;;;;4976858;28;20019;-68
2023/01/10 06:00:32;;;;;;;35.03;3.20;;;4.40;99.90;;;;;;4976330;28;20061;-68
2023/01/10 06:02:58;;;;;;;37.97;3.80;;;4.40;99.90;;;;;;4976371;28;20063;-69
2023/01/10 06:05:23;;;;;;;28.23;4.72;;;4.40;99.90;;;;;;4976299;28;20177;-68
2023/01/10 06:07:49;;;;;;;38.17;4.22;;;4.40;99.90;;;;;;4976084;28;20066;-68
2023/01/10 06:10:15;;;;;;;36.67;4.30;;;4.40;99.90;;;;;;4976350;28;20200;-68
2023/01/10 06:12:44;;;;;;;21.20;3.58;;;4.40;99.90;;;;;;4976377;28;20423;-68
2023/01/10 06:15:10;;;;;;;56.35;5.07;;;4.30;99.90;;;;;;4976196;28;20031;-68
2023/01/10 06:17:35;;;;;;;39.10;4.32;;;4.30;99.90;;;;;;4975817;28;20030;-68
2023/01/10 06:20:01;;;;;;;63.63;5.22;;;4.30;99.90;;;;;;4976445;28;20081;-68
2023/01/10 06:22:27;;;;;;;60.00;6.00;;;4.30;99.90;;;;;;4976215;28;20033;-68
2023/01/10 06:24:54;;;;;;;58.95;6.18;;;4.30;99.90;;;;;;4975795;28;20023;-68
2023/01/10 06:27:20;;;;;;;65.20;8.00;;;4.30;99.90;;;;;;4975714;28;20054;-68
2023/01/10 06:29:45;;;;;;;63.88;6.93;;;4.50;99.90;;;;;;4974901;28;20059;-68
2023/01/10 06:32:11;;;;;;;51.78;6.50;;;4.50;99.90;;;;;;4976040;28;20390;-68
2023/01/10 06:34:36;;;;;;;60.40;7.63;;;4.70;99.90;;;;;;4974551;28;20026;-68
2023/01/10 06:37:02;;;;;;;76.55;6.43;;;4.80;99.90;;;;;;4975914;28;20491;-68
2023/01/10 06:39:27;;;;;;;53.35;6.65;;;4.90;99.90;;;;;;4975686;28;20494;-68
2023/01/10 06:41:53;;;;;;;81.82;8.50;;;5.00;99.90;;;;;;4975608;28;20049;-68
2023/01/10 06:44:18;;;;;;;85.95;9.20;;;5.00;99.90;;;;;;4975507;28;20552;-68
2023/01/10 06:46:44;;;;;;;64.95;7.18;;;5.10;99.90;;;;;;4975378;28;20046;-68
2023/01/10 06:49:09;;;;;;;75.82;8.10;;;5.20;99.90;;;;;;4975973;28;20030;-68
2023/01/10 06:51:35;;;;;;;44.80;5.35;;;5.30;99.90;;;;;;4975303;28;20033;-68
2023/01/10 06:54:01;;;;;;;59.47;6.43;;;5.20;99.90;;;;;;4974143;28;20113;-69
2023/01/10 06:56:26;;;;;;;84.32;8.13;;;5.20;99.90;;;;;;4975138;28;20027;-68
2023/01/10 06:58:52;;;;;;;84.43;7.60;;;5.20;99.90;;;;;;4975520;28;20038;-68
2023/01/10 07:01:19;;;;;;;49.78;5.90;;;5.30;99.90;;;;;;4975345;28;20027;-68
2023/01/10 07:03:45;;;;;;;63.25;6.88;;;5.30;99.90;;;;;;4975473;28;20126;-68
2023/01/10 07:06:12;;;;;;;74.40;7.82;;;5.30;99.90;;;;;;4974934;28;20023;-69
2023/01/10 07:08:42;;;;;;;56.95;6.75;;;5.30;99.90;;;;;;4975690;28;20510;-68
2023/01/10 07:11:08;;;;;;;64.25;6.75;;;5.20;99.90;;;;;;4975344;28;20055;-69
2023/01/10 07:13:37;;;;;;;65.70;6.53;;;5.20;99.90;;;;;;4975148;28;20050;-68
2023/01/10 07:16:07;;;;;;;59.42;7.82;;;5.20;99.90;;;;;;4974517;28;20035;-69
2023/01/10 07:18:34;;;;;;;62.72;7.00;;;5.20;99.90;;;;;;4975208;28;20109;-68
2023/01/10 07:20:59;;;;;;;65.18;6.32;;;5.20;99.90;;;;;;4997191;23;20062;-71
2023/01/10 07:23:25;;;;;;;48.80;6.78;;;5.20;99.90;;;;;;4974925;28;20035;-69
2023/01/10 07:25:51;;;;;;;67.28;6.60;;;5.20;99.90;;;;;;4974926;28;20030;-69
2023/01/10 07:28:16;;;;;;;64.63;8.85;;;5.20;99.90;;;;;;4974479;28;20026;-71
2023/01/10 07:30:42;;;;;;;72.15;7.88;;;5.10;99.90;;;;;;4974422;28;20109;-71
2023/01/10 07:33:07;;;;;;;87.30;9.63;;;5.10;99.90;;;;;;4974516;28;20038;-69
2023/01/10 07:35:33;;;;;;;87.82;10.73;;;5.10;99.90;;;;;;4974541;28;20031;-69
2023/01/10 07:38:00;;;;;;;63.63;6.93;;;5.20;99.90;;;;;;4974404;28;20534;-70
2023/01/10 07:40:26;;;;;;;65.13;8.20;;;5.30;99.90;;;;;;4974041;28;20049;-70
2023/01/10 07:42:57;;;;;;;75.05;10.27;;;5.30;99.90;;;;;;4973922;28;20073;-71
2023/01/10 07:45:22;;;;;;;81.15;9.13;;;5.30;99.90;;;;;;4974607;28;20027;-71
2023/01/10 07:47:48;;;;;;;79.28;8.75;;;5.30;99.90;;;;;;4974194;28;20475;-70
2023/01/10 07:50:14;;;;;;;76.35;9.35;;;5.50;99.90;;;;;;4974287;28;20026;-70
2023/01/10 07:52:39;;;;;;;55.40;8.05;;;5.70;99.90;;;;;;4973827;28;20101;-71
2023/01/10 07:55:05;;;;;;;82.78;9.45;;;5.70;99.90;;;;;;4974271;28;20498;-71
2023/01/10 07:57:31;;;;;;;73.18;8.18;;;5.70;99.90;;;;;;4974322;28;20510;-71
2023/01/10 07:59:57;;;;;;;91.63;9.80;;;5.70;99.90;;;;;;4974214;28;20063;-70
2023/01/10 08:02:22;;;;;;;76.45;9.15;;;5.70;99.90;;;;;;4972973;28;20490;-70
2023/01/10 08:04:48;;;;;;;59.55;7.35;;;5.70;99.90;;;;;;4974580;28;20410;-69
2023/01/10 08:07:13;;;;;;;77.78;8.70;;;5.70;99.90;;;;;;4974203;28;20031;-71
2023/01/10 08:09:39;;;;;;;74.18;7.82;;;5.70;99.90;;;;;;4974140;28;20022;-70
2023/01/10 08:12:04;;;;;;;70.13;9.15;;;5.80;99.90;;;;;;4974361;28;20034;-70
2023/01/10 08:14:30;;;;;;;73.35;7.85;;;5.80;99.90;;;;;;4974653;28;20031;-71
2023/01/10 08:16:55;;;;;;;55.40;7.35;;;5.80;99.90;;;;;;4974651;28;20070;-69
2023/01/10 08:19:21;;;;;;;77.15;8.00;;;5.90;99.90;;;;;;4973941;28;20114;-70
2023/01/10 08:21:47;;;;;;;67.28;8.70;;;5.90;99.90;;;;;;4974073;28;20042;-70
2023/01/10 08:24:12;;;;;;;51.28;9.35;;;5.90;99.90;;;;;;4972800;28;20498;-70
2023/01/10 08:26:38;;;;;;;69.22;8.65;;;5.90;99.90;;;;;;4974110;28;20372;-69
2023/01/10 08:29:05;;;;;;;72.40;9.88;;;5.90;99.90;;;;;;4974370;28;20042;-71
2023/01/10 08:31:31;;;;;;;62.25;9.73;;;5.90;99.90;;;;;;4973728;28;20037;-70
2023/01/10 08:33:56;;;;;;;44.33;7.80;;;5.90;99.90;;;;;;4974032;28;20023;-70
2023/01/10 08:36:23;;;;;;;45.58;7.47;;;5.90;99.90;;;;;;4974243;28;20031;-71
2023/01/10 08:38:49;;;;;;;50.85;7.35;;;5.90;99.90;;;;;;4972788;28;20082;-70
2023/01/10 08:41:15;;;;;;;69.38;9.60;;;6.00;99.90;;;;;;4973879;28;20027;-71
2023/01/10 08:43:41;;;;;;;50.65;7.35;;;6.00;99.90;;;;;;4973607;28;20084;-71
2023/01/10 08:46:07;;;;;;;52.00;6.90;;;5.90;99.90;;;;;;4973899;28;20510;-72
2023/01/10 08:48:32;;;;;;;53.20;6.50;;;5.90;99.90;;;;;;4973844;28;20038;-71
2023/01/10 08:51:03;;;;;;;53.17;7.07;;;6.00;99.90;;;;;;4974008;28;20030;-71
2023/01/10 08:53:30;;;;;;;44.42;7.05;;;6.00;99.90;;;;;;4976200;28;20092;-71
2023/01/10 08:55:56;;;;;;;48.17;7.00;;;6.00;99.90;;;;;;4977105;28;20403;-70
2023/01/10 08:58:21;;;;;;;47.85;6.60;;;6.00;99.90;;;;;;4977783;28;20042;-70
2023/01/10 09:00:48;;;;;;;56.17;8.25;;;6.00;99.90;;;;;;4977073;28;20034;-71
2023/01/10 09:03:13;;;;;;;58.25;6.88;;;6.10;99.90;;;;;;4975937;28;20031;-69
2023/01/10 09:05:39;;;;;;;60.15;7.72;;;6.10;99.90;;;;;;4976945;28;20495;-71
2023/01/10 09:08:05;;;;;;;58.90;7.18;;;6.20;99.90;;;;;;4977079;28;20479;-70
2023/01/10 09:10:30;;;;;;;66.30;7.00;;;6.20;99.90;;;;;;4977564;28;20027;-69
2023/01/10 09:13:00;;;;;;;41.03;7.47;;;6.10;99.90;;;;;;4976836;28;20022;-71
2023/01/10 09:15:28;;;;;;;57.42;7.18;;;6.20;99.90;;;;;;4975654;28;20063;-69
2023/01/10 09:17:59;;;;;;;37.22;7.18;;;6.10;99.90;;;;;;4977040;28;20022;-71
2023/01/10 09:20:27;;;;;;;53.35;7.78;;;6.10;99.90;;;;;;4976753;28;20089;-70
2023/01/10 09:22:53;;;;;;;42.25;7.22;;;6.10;99.90;;;;;;4976595;28;20041;-71
2023/01/10 09:25:18;;;;;;;46.80;8.27;;;6.10;99.90;;;;;;4976732;28;20027;-71
2023/01/10 09:27:44;;;;;;;52.80;6.53;;;6.10;99.90;;;;;;4976984;28;20026;-70
2023/01/10 09:30:10;;;;;;;50.53;7.75;;;6.20;99.90;;;;;;4976861;28;20050;-70
2023/01/10 09:32:36;;;;;;;34.75;6.50;;;6.10;99.90;;;;;;4976483;28;20380;-70
2023/01/10 09:35:02;;;;;;;36.72;6.22;;;6.20;99.90;;;;;;4976567;28;20514;-71
2023/01/10 09:37:28;;;;;;;35.85;6.53;;;6.20;99.90;;;;;;4976480;28;20528;-69
2023/01/10 09:39:56;;;;;;;48.85;9.02;;;6.20;99.90;;;;;;4976588;28;20026;-71
2023/01/10 09:42:28;;;;;;;51.38;11.30;;;6.20;99.90;;;;;;4976413;28;20033;-70
2023/01/10 09:45:02;;;;;;;49.00;11.37;;;6.30;99.90;;;;;;4977514;28;20027;-71
2023/01/10 09:47:47;;;;;;;49.65;11.00;;;6.30;99.90;;;;;;4976397;28;20110;-70
2023/01/10 09:50:24;;;;;;;44.33;9.57;;;6.30;99.90;;;;;;4976607;28;20039;-70
2023/01/10 09:52:55;;;;;;;49.60;10.77;;;6.20;99.90;;;;;;4976020;28;20482;-70
2023/01/10 09:55:35;;;;;;;45.28;10.73;;;6.30;99.90;;;;;;4976512;28;20114;-70
2023/01/10 09:58:10;;;;;;;48.38;11.43;;;6.30;99.90;;;;;;4976496;28;20031;-70
2023/01/10 10:00:58;;;;;;;37.05;10.52;;;6.30;99.90;;;;;;4976233;28;20037;-71
2023/01/10 10:03:30;;;;;;;44.88;11.27;;;6.20;99.90;;;;;;4956652;28;20030;-70
2023/01/10 10:05:56;;;;;;;41.28;9.45;;;6.20;99.90;;;;;;4956210;29;20027;-71
2023/01/10 10:08:22;;;;;;;47.15;10.68;;;6.30;99.90;;;;;;4956710;28;20086;-70
2023/01/10 10:11:33;;;;;;;59.67;10.57;;;6.30;99.90;;;;;;4956531;28;20035;-70
2023/01/10 10:14:17;;;;;;;55.38;11.63;;;6.30;99.90;;;;;;4968571;28;20023;-71
2023/01/10 10:17:07;;;;;;;51.47;10.13;;;6.40;99.90;;;;;;4976420;28;20061;-71
2023/01/10 10:19:56;;;;;;;48.72;10.65;;;6.40;99.90;;;;;;4975878;28;20093;-71
2023/01/10 10:22:36;;;;;;;79.55;12.23;;;6.40;99.90;;;;;;4975648;28;20031;-70
2023/01/10 10:25:14;;;;;;;59.22;10.43;;;6.40;99.90;;;;;;4975925;28;20015;-71
2023/01/10 10:27:57;;;;;;;44.28;10.07;;;6.40;99.90;;;;;;4975913;28;20025;-70
2023/01/10 10:30:35;;;;;;;46.58;10.07;;;6.50;99.90;;;;;;4975819;28;20103;-70
2023/01/10 10:33:19;;;;;;;41.22;9.23;;;6.50;99.90;;;;;;4975410;28;20390;-71
2023/01/10 10:35:54;;;;;;;40.05;7.47;;;6.50;99.90;;;;;;4975775;28;20101;-70
2023/01/10 10:38:25;;;;;;;58.20;9.23;;;6.50;99.90;;;;;;4975663;28;20022;-71
2023/01/10 10:40:53;;;;;;;38.95;7.82;;;6.50;99.90;;;;;;4975468;28;20031;-71
2023/01/10 10:43:23;;;;;;;46.40;8.73;;;6.50;99.90;;;;;;4975597;28;20023;-70
2023/01/10 10:45:54;;;;;;;52.65;8.48;;;6.60;99.90;;;;;;4975304;28;20023;-71
2023/01/10 10:48:37;;;;;;;62.67;10.02;;;6.60;99.90;;;;;;4975594;28;20019;-70
2023/01/10 10:51:16;;;;;;;38.20;7.78;;;6.60;99.90;;;;;;4975088;28;20150;-71
2023/01/10 10:53:41;;;;;;;57.47;8.55;;;6.60;99.90;;;;;;4975417;28;20062;-70
2023/01/10 10:56:12;;;;;;;51.60;10.10;;;6.60;99.90;;;;;;4975126;28;20038;-70
2023/01/10 10:58:40;;;;;;;74.68;9.85;;;6.60;99.90;;;;;;4974906;28;20030;-71
2023/01/10 11:01:13;;;;;;;43.75;8.18;;;6.70;99.90;;;;;;4975136;28;20026;-70
2023/01/10 11:03:47;;;;;;;41.83;7.65;;;6.70;99.90;;;;;;4975748;28;20360;-71
2023/01/10 11:06:13;;;;;;;;;;;6.70;99.90;;;;;;4975589;28;20029;-71
2023/01/10 11:08:42;;;;;;;41.95;7.78;;;6.70;99.90;;;;;;4975147;28;20310;-70
2023/01/10 11:11:23;;;;;;;42.33;8.93;;;6.70;99.90;;;;;;4974844;28;20031;-71
2023/01/10 11:14:00;;;;;;;69.45;11.05;;;6.70;99.90;;;;;;4974719;28;20030;-71
2023/01/10 11:16:40;;;;;;;53.17;7.20;;;6.80;99.90;;;;;;4973893;28;20034;-71
2023/01/10 11:19:28;;;;;;;55.47;7.57;;;6.70;99.90;;;;;;4974705;28;20030;-70
2023/01/10 11:22:05;;;;;;;48.65;6.93;;;6.80;99.90;;;;;;4973286;28;20027;-71
2023/01/10 11:24:38;;;;;;;39.90;5.47;;;6.70;99.90;;;;;;4974645;28;20018;-71
2023/01/10 11:27:14;;;;;;;50.60;7.63;;;6.80;99.90;;;;;;4974960;28;20050;-70
2023/01/10 11:29:47;;;;;;;51.38;8.10;;;6.80;99.90;;;;;;4974395;28;20027;-71
2023/01/10 11:32:16;;;;;;;56.15;8.25;;;6.80;99.90;;;;;;4974687;28;20035;-70
2023/01/10 11:34:54;;;;;;;53.28;6.45;;;6.80;99.90;;;;;;4974523;28;20065;-70
2023/01/10 11:37:28;;;;;;;34.58;6.72;;;6.80;99.90;;;;;;4974831;28;20030;-69
2023/01/10 11:40:15;;;;;;;35.33;5.50;;;6.90;99.90;;;;;;4974379;28;20023;-71
2023/01/10 11:42:41;;;;;;;47.95;7.85;;;6.90;99.90;;;;;;4974419;28;20026;-70
2023/01/10 11:45:18;;;;;;;41.05;6.43;;;6.90;99.90;;;;;;4974498;28;20088;-69
2023/01/10 11:48:06;;;;;;;55.88;6.57;;;7.00;99.90;;;;;;4974435;28;20386;-69
2023/01/10 11:50:35;;;;;;;46.88;7.65;;;7.00;99.90;;;;;;4973182;28;20030;-71
2023/01/10 11:53:00;;;;;;;40.00;6.07;;;7.00;99.90;;;;;;4974530;28;20058;-70
2023/01/10 11:55:31;;;;;;;73.45;7.45;;;7.00;99.90;;;;;;4974312;28;20058;-71
2023/01/10 11:58:11;;;;;;;55.58;6.13;;;7.00;99.90;;;;;;4974361;28;20030;-71
2023/01/10 12:00:39;;;;;;;62.95;6.85;;;7.00;99.90;;;;;;4974079;28;20125;-71
2023/01/10 12:03:36;;;;;;;66.05;7.30;;;7.10;99.90;;;;;;4973867;28;20022;-71
2023/01/10 12:06:28;;;;;;;41.35;6.22;;;7.10;99.90;;;;;;4969723;28;20136;-71
2023/01/10 12:08:55;;;;;;;41.88;5.50;;;7.10;99.90;;;;;;4973314;28;20039;-71
2023/01/10 12:11:30;;;;;;;40.17;5.25;;;7.10;99.90;;;;;;4974146;28;20434;-71
2023/01/10 12:13:59;;;;;;;52.40;8.32;;;7.10;99.90;;;;;;4974335;28;20027;-71
2023/01/10 12:16:28;;;;;;;58.65;8.15;;;7.10;99.90;;;;;;4974427;28;20126;-70
2023/01/10 12:18:58;;;;;;;72.07;9.98;;;7.00;99.90;;;;;;4973817;28;20030;-71
2023/01/10 12:21:28;;;;;;;38.83;6.35;;;7.00;99.90;;;;;;4974147;28;20557;-70
2023/01/10 12:23:58;;;;;;;63.17;7.85;;;7.00;99.90;;;;;;4974118;28;20027;-71
2023/01/10 12:26:26;;;;;;;55.47;6.50;;;7.00;99.90;;;;;;4974644;28;20023;-69
2023/01/10 12:28:56;;;;;;;52.97;7.25;;;7.00;99.90;;;;;;4977184;28;20019;-69
2023/01/10 12:31:22;;;;;;;42.58;7.95;;;7.00;99.90;;;;;;4977915;28;20077;-70
2023/01/10 12:33:55;;;;;;;45.97;8.05;;;7.00;99.90;;;;;;4978203;28;20031;-70
2023/01/10 12:36:30;;;;;;;55.60;8.23;;;7.00;99.90;;;;;;4977707;28;20098;-71
2023/01/10 12:39:06;;;;;;;38.67;6.63;;;7.00;99.90;;;;;;4977711;28;20030;-70
2023/01/10 12:45:23;;;;;;;42.45;7.85;;;7.00;99.90;;;;;;4969636;28;20038;-70
2023/01/10 12:48:03;;;;;;;63.53;9.27;;;7.00;99.90;;;;;;4977390;28;20027;-70
2023/01/10 12:50:32;;;;;;;57.05;8.35;;;7.10;99.90;;;;;;4977488;28;20060;-70
2023/01/10 12:53:10;;;;;;;51.15;8.98;;;7.00;99.90;;;;;;4977303;28;20031;-70
2023/01/10 12:55:41;;;;;;;61.10;10.45;;;7.00;99.90;;;;;;4977581;28;20033;-71
2023/01/10 12:58:25;;;;;;;61.35;8.82;;;7.00;99.90;;;;;;4977595;28;20052;-70
2023/01/10 13:00:56;;;;;;;78.95;11.10;;;7.00;99.90;;;;;;4977277;28;20031;-71
2023/01/10 13:03:28;;;;;;;60.30;8.68;;;7.00;99.90;;;;;;4977428;28;20022;-70
2023/01/10 13:05:56;;;;;;;75.13;9.60;;;7.00;99.90;;;;;;4977179;28;20065;-70
2023/01/10 13:08:25;;;;;;;75.47;10.13;;;7.10;99.90;;;;;;4977087;28;20023;-69
2023/01/10 13:10:53;;;;;;;57.28;9.40;;;7.10;99.90;;;;;;4976944;28;20045;-70
2023/01/10 13:13:41;;;;;;;58.50;8.18;;;7.00;99.90;;;;;;4977043;28;20487;-69